aviador You're here:

KOTG Decoded Metar

WORTHINGTON in MN, USA
Report Time2018-07-22 06:56:00
UTC Time2018-07-22 07:09:56
Flight Rules vfr VFR
Wind280° at 03 kt
W.Decomp.*RWY 29: 2.9 kt HW 0.6 kt LCW
RWY 36: 0.4 kt HW 3 kt LCW
W.Rank280° ranks 16
Current wind is below 280° avg. (10.4)
Visibility9999 m
Phenomena:N/A
Clouds:N/A
CeilingNone
Temp16°C (ISA +4)
Dew Point16°C (100% RH)
QNH1020 hPa
Density Alt2,073 ft
Elevation1,575 ft
Report Wrong Elevation
Raw Report
KOTG 220656Z AUTO 28003KT 10SM CLR 16/16 A3012 RMK AO2 SLP196
T01610156=

Extra information for KOTG:More info

Metar Taf Metar & Taf Last 4 Metars F.Rules Stats Wind Profile Meteogram Temp Stats Airport Information Weather charts Add Link Nearby VenuesMetar ALERT Operation Metar Decoded Social comments

AIRNAV info for KOTG